sensor_id;sensor_type;location;lat;lon;timestamp;P1;durP1;ratioP1;P2;durP2;ratioP2
63050;SDS011;49136;47.416;19.402;2023-02-12T00:01:17;9.85;;;5.10;;
63050;SDS011;49136;47.416;19.402;2023-02-12T00:03:43;19.38;;;6.10;;
63050;SDS011;49136;47.416;19.402;2023-02-12T00:06:09;8.65;;;4.88;;
63050;SDS011;49136;47.416;19.402;2023-02-12T00:08:35;19.23;;;7.47;;
63050;SDS011;49136;47.416;19.402;2023-02-12T00:11:09;9.05;;;4.55;;
63050;SDS011;49136;47.416;19.402;2023-02-12T00:13:34;8.80;;;5.00;;
63050;SDS011;49136;47.416;19.402;2023-02-12T00:16:03;7.55;;;3.63;;
63050;SDS011;49136;47.416;19.402;2023-02-12T00:18:32;10.55;;;6.15;;
63050;SDS011;49136;47.416;19.402;2023-02-12T00:20:59;11.30;;;3.50;;
63050;SDS011;49136;47.416;19.402;2023-02-12T00:23:25;12.20;;;4.30;;
63050;SDS011;49136;47.416;19.402;2023-02-12T00:25:50;16.70;;;5.80;;
63050;SDS011;49136;47.416;19.402;2023-02-12T00:28:16;16.90;;;6.60;;
63050;SDS011;49136;47.416;19.402;2023-02-12T00:30:41;10.77;;;6.53;;
63050;SDS011;49136;47.416;19.402;2023-02-12T00:33:07;8.85;;;4.88;;
63050;SDS011;49136;47.416;19.402;2023-02-12T00:35:32;14.27;;;6.10;;
63050;SDS011;49136;47.416;19.402;2023-02-12T00:37:58;9.80;;;4.55;;
63050;SDS011;49136;47.416;19.402;2023-02-12T00:40:23;7.10;;;4.70;;
63050;SDS011;49136;47.416;19.402;2023-02-12T00:42:49;15.05;;;6.57;;
63050;SDS011;49136;47.416;19.402;2023-02-12T00:45:15;9.90;;;5.72;;
63050;SDS011;49136;47.416;19.402;2023-02-12T00:47:40;10.00;;;4.85;;
63050;SDS011;49136;47.416;19.402;2023-02-12T00:50:06;11.75;;;5.05;;
63050;SDS011;49136;47.416;19.402;2023-02-12T00:52:31;11.52;;;5.55;;
63050;SDS011;49136;47.416;19.402;2023-02-12T00:54:57;23.63;;;6.47;;
63050;SDS011;49136;47.416;19.402;2023-02-12T00:57:23;13.98;;;5.15;;
63050;SDS011;49136;47.416;19.402;2023-02-12T00:59:49;13.90;;;5.68;;
63050;SDS011;49136;47.416;19.402;2023-02-12T01:02:14;13.85;;;6.20;;
63050;SDS011;49136;47.416;19.402;2023-02-12T01:04:40;10.90;;;5.65;;
63050;SDS011;49136;47.416;19.402;2023-02-12T01:07:05;21.20;;;6.40;;
63050;SDS011;49136;47.416;19.402;2023-02-12T01:09:31;9.07;;;5.95;;
63050;SDS011;49136;47.416;19.402;2023-02-12T01:11:56;15.27;;;6.80;;
63050;SDS011;49136;47.416;19.402;2023-02-12T01:14:22;19.10;;;6.05;;
63050;SDS011;49136;47.416;19.402;2023-02-12T01:16:47;9.88;;;4.22;;
63050;SDS011;49136;47.416;19.402;2023-02-12T01:19:13;11.57;;;6.05;;
63050;SDS011;49136;47.416;19.402;2023-02-12T01:21:38;13.02;;;5.38;;
63050;SDS011;49136;47.416;19.402;2023-02-12T01:24:04;14.63;;;7.60;;
63050;SDS011;49136;47.416;19.402;2023-02-12T01:26:29;10.80;;;5.95;;
63050;SDS011;49136;47.416;19.402;2023-02-12T01:29:00;14.75;;;4.60;;
63050;SDS011;49136;47.416;19.402;2023-02-12T01:31:28;16.17;;;6.20;;
63050;SDS011;49136;47.416;19.402;2023-02-12T01:33:56;9.30;;;5.20;;
63050;SDS011;49136;47.416;19.402;2023-02-12T01:36:23;12.57;;;4.63;;
63050;SDS011;49136;47.416;19.402;2023-02-12T01:38:49;8.75;;;5.28;;
63050;SDS011;49136;47.416;19.402;2023-02-12T01:41:17;10.45;;;4.68;;
63050;SDS011;49136;47.416;19.402;2023-02-12T01:46:31;12.35;;;6.60;;
63050;SDS011;49136;47.416;19.402;2023-02-12T01:48:57;8.55;;;4.03;;
63050;SDS011;49136;47.416;19.402;2023-02-12T01:51:22;6.65;;;5.18;;
63050;SDS011;49136;47.416;19.402;2023-02-12T01:53:50;15.88;;;5.65;;
63050;SDS011;49136;47.416;19.402;2023-02-12T01:56:18;19.10;;;5.70;;
63050;SDS011;49136;47.416;19.402;2023-02-12T01:58:45;17.52;;;6.45;;
63050;SDS011;49136;47.416;19.402;2023-02-12T02:01:14;18.52;;;6.47;;
63050;SDS011;49136;47.416;19.402;2023-02-12T02:03:44;9.32;;;5.00;;
63050;SDS011;49136;47.416;19.402;2023-02-12T02:06:18;11.32;;;5.38;;
63050;SDS011;49136;47.416;19.402;2023-02-12T02:08:49;10.65;;;5.28;;
63050;SDS011;49136;47.416;19.402;2023-02-12T02:11:15;9.43;;;4.65;;
63050;SDS011;49136;47.416;19.402;2023-02-12T02:13:59;12.73;;;6.18;;
63050;SDS011;49136;47.416;19.402;2023-02-12T02:16:46;6.80;;;4.10;;
63050;SDS011;49136;47.416;19.402;2023-02-12T02:19:26;14.90;;;5.53;;
63050;SDS011;49136;47.416;19.402;2023-02-12T02:27:34;19.23;;;7.60;;
63050;SDS011;49136;47.416;19.402;2023-02-12T02:30:44;12.90;;;3.95;;
63050;SDS011;49136;47.416;19.402;2023-02-12T02:38:51;11.07;;;3.63;;
63050;SDS011;49136;47.416;19.402;2023-02-12T02:41:26;11.52;;;4.70;;
63050;SDS011;49136;47.416;19.402;2023-02-12T02:43:58;8.40;;;5.30;;
63050;SDS011;49136;47.416;19.402;2023-02-12T02:49:17;7.13;;;4.35;;
63050;SDS011;49136;47.416;19.402;2023-02-12T02:51:47;11.00;;;5.40;;
63050;SDS011;49136;47.416;19.402;2023-02-12T02:54:32;4.80;;;3.10;;
63050;SDS011;49136;47.416;19.402;2023-02-12T02:57:07;7.18;;;4.30;;
63050;SDS011;49136;47.416;19.402;2023-02-12T02:59:39;7.57;;;4.15;;
63050;SDS011;49136;47.416;19.402;2023-02-12T03:05:06;8.38;;;3.90;;
63050;SDS011;49136;47.416;19.402;2023-02-12T03:07:36;6.80;;;3.42;;
63050;SDS011;49136;47.416;19.402;2023-02-12T03:12:37;10.50;;;5.07;;
63050;SDS011;49136;47.416;19.402;2023-02-12T03:15:18;7.68;;;3.58;;
63050;SDS011;49136;47.416;19.402;2023-02-12T03:17:49;8.35;;;5.28;;
63050;SDS011;49136;47.416;19.402;2023-02-12T03:20:23;9.90;;;5.03;;
63050;SDS011;49136;47.416;19.402;2023-02-12T03:22:54;10.95;;;4.97;;
63050;SDS011;49136;47.416;19.402;2023-02-12T03:25:37;11.63;;;6.53;;
63050;SDS011;49136;47.416;19.402;2023-02-12T03:28:16;9.27;;;3.78;;
63050;SDS011;49136;47.416;19.402;2023-02-12T03:33:31;9.75;;;5.45;;
63050;SDS011;49136;47.416;19.402;2023-02-12T03:38:51;4.07;;;3.65;;
63050;SDS011;49136;47.416;19.402;2023-02-12T03:41:20;12.25;;;6.57;;
63050;SDS011;49136;47.416;19.402;2023-02-12T03:43:55;14.35;;;3.40;;
63050;SDS011;49136;47.416;19.402;2023-02-12T03:49:31;5.53;;;2.80;;
63050;SDS011;49136;47.416;19.402;2023-02-12T03:52:03;12.00;;;3.45;;
63050;SDS011;49136;47.416;19.402;2023-02-12T03:54:29;10.65;;;5.40;;
63050;SDS011;49136;47.416;19.402;2023-02-12T03:57:06;11.38;;;6.25;;
63050;SDS011;49136;47.416;19.402;2023-02-12T03:59:36;12.88;;;5.50;;
63050;SDS011;49136;47.416;19.402;2023-02-12T04:02:03;16.55;;;4.82;;
63050;SDS011;49136;47.416;19.402;2023-02-12T04:04:29;7.43;;;5.53;;
63050;SDS011;49136;47.416;19.402;2023-02-12T04:06:55;12.43;;;6.18;;
63050;SDS011;49136;47.416;19.402;2023-02-12T04:09:21;11.57;;;5.38;;
63050;SDS011;49136;47.416;19.402;2023-02-12T04:31:22;6.75;;;5.13;;
63050;SDS011;49136;47.416;19.402;2023-02-12T04:34:00;7.30;;;5.28;;
63050;SDS011;49136;47.416;19.402;2023-02-12T04:36:37;13.73;;;6.40;;
63050;SDS011;49136;47.416;19.402;2023-02-12T04:39:09;12.13;;;5.85;;
63050;SDS011;49136;47.416;19.402;2023-02-12T04:41:39;6.37;;;4.33;;
63050;SDS011;49136;47.416;19.402;2023-02-12T04:46:39;18.35;;;4.60;;
63050;SDS011;49136;47.416;19.402;2023-02-12T04:49:04;16.83;;;5.93;;
63050;SDS011;49136;47.416;19.402;2023-02-12T04:51:30;8.02;;;4.57;;
63050;SDS011;49136;47.416;19.402;2023-02-12T04:53:55;14.27;;;5.10;;
63050;SDS011;49136;47.416;19.402;2023-02-12T04:56:21;7.22;;;4.10;;
63050;SDS011;49136;47.416;19.402;2023-02-12T04:58:46;16.25;;;7.22;;
63050;SDS011;49136;47.416;19.402;2023-02-12T05:01:11;24.55;;;5.85;;
63050;SDS011;49136;47.416;19.402;2023-02-12T05:03:37;11.63;;;6.35;;
63050;SDS011;49136;47.416;19.402;2023-02-12T05:06:04;14.48;;;7.10;;
63050;SDS011;49136;47.416;19.402;2023-02-12T05:08:30;13.90;;;5.55;;
63050;SDS011;49136;47.416;19.402;2023-02-12T05:10:56;10.65;;;4.75;;
63050;SDS011;49136;47.416;19.402;2023-02-12T05:13:21;20.10;;;5.68;;
63050;SDS011;49136;47.416;19.402;2023-02-12T05:15:47;22.13;;;8.05;;
63050;SDS011;49136;47.416;19.402;2023-02-12T05:18:12;14.70;;;6.03;;
63050;SDS011;49136;47.416;19.402;2023-02-12T05:20:38;9.98;;;5.18;;
63050;SDS011;49136;47.416;19.402;2023-02-12T05:23:03;13.70;;;5.15;;
63050;SDS011;49136;47.416;19.402;2023-02-12T05:25:28;12.63;;;6.30;;
63050;SDS011;49136;47.416;19.402;2023-02-12T05:27:55;12.93;;;6.75;;
63050;SDS011;49136;47.416;19.402;2023-02-12T05:30:21;17.15;;;8.25;;
63050;SDS011;49136;47.416;19.402;2023-02-12T05:32:46;15.75;;;6.82;;
63050;SDS011;49136;47.416;19.402;2023-02-12T05:35:12;14.55;;;8.73;;
63050;SDS011;49136;47.416;19.402;2023-02-12T05:37:37;13.00;;;8.38;;
63050;SDS011;49136;47.416;19.402;2023-02-12T05:40:04;16.17;;;6.50;;
63050;SDS011;49136;47.416;19.402;2023-02-12T05:42:30;21.48;;;6.82;;
63050;SDS011;49136;47.416;19.402;2023-02-12T05:44:56;22.92;;;9.00;;
63050;SDS011;49136;47.416;19.402;2023-02-12T05:47:22;45.03;;;20.00;;
63050;SDS011;49136;47.416;19.402;2023-02-12T05:49:47;19.52;;;12.82;;
63050;SDS011;49136;47.416;19.402;2023-02-12T05:52:12;17.63;;;9.10;;
63050;SDS011;49136;47.416;19.402;2023-02-12T05:54:38;25.15;;;12.13;;
63050;SDS011;49136;47.416;19.402;2023-02-12T05:57:03;27.85;;;14.75;;
63050;SDS011;49136;47.416;19.402;2023-02-12T05:59:30;45.60;;;15.65;;
63050;SDS011;49136;47.416;19.402;2023-02-12T06:01:56;31.85;;;13.05;;
63050;SDS011;49136;47.416;19.402;2023-02-12T06:04:23;23.48;;;9.93;;
63050;SDS011;49136;47.416;19.402;2023-02-12T06:06:51;19.63;;;10.98;;
63050;SDS011;49136;47.416;19.402;2023-02-12T06:09:17;13.15;;;6.43;;
63050;SDS011;49136;47.416;19.402;2023-02-12T06:11:42;23.15;;;9.07;;
63050;SDS011;49136;47.416;19.402;2023-02-12T06:14:10;10.65;;;5.38;;
63050;SDS011;49136;47.416;19.402;2023-02-12T06:19:08;5.75;;;3.33;;
63050;SDS011;49136;47.416;19.402;2023-02-12T06:21:33;18.10;;;7.65;;
63050;SDS011;49136;47.416;19.402;2023-02-12T06:23:59;18.35;;;7.13;;
63050;SDS011;49136;47.416;19.402;2023-02-12T06:26:25;9.48;;;5.40;;
63050;SDS011;49136;47.416;19.402;2023-02-12T06:28:50;16.92;;;5.63;;
63050;SDS011;49136;47.416;19.402;2023-02-12T06:31:17;9.88;;;5.93;;
63050;SDS011;49136;47.416;19.402;2023-02-12T06:33:44;15.80;;;6.82;;
63050;SDS011;49136;47.416;19.402;2023-02-12T06:36:10;19.55;;;7.97;;
63050;SDS011;49136;47.416;19.402;2023-02-12T06:38:35;10.48;;;5.60;;
63050;SDS011;49136;47.416;19.402;2023-02-12T06:41:01;11.77;;;5.85;;
63050;SDS011;49136;47.416;19.402;2023-02-12T06:43:27;15.13;;;7.00;;
63050;SDS011;49136;47.416;19.402;2023-02-12T06:45:52;14.00;;;7.55;;
63050;SDS011;49136;47.416;19.402;2023-02-12T06:48:18;12.90;;;6.47;;
63050;SDS011;49136;47.416;19.402;2023-02-12T06:50:43;21.45;;;6.97;;
63050;SDS011;49136;47.416;19.402;2023-02-12T06:53:09;11.23;;;6.97;;
63050;SDS011;49136;47.416;19.402;2023-02-12T06:55:34;28.75;;;10.25;;
63050;SDS011;49136;47.416;19.402;2023-02-12T06:58:00;21.80;;;8.25;;
63050;SDS011;49136;47.416;19.402;2023-02-12T07:00:25;15.15;;;7.90;;
63050;SDS011;49136;47.416;19.402;2023-02-12T07:02:52;21.80;;;9.68;;
63050;SDS011;49136;47.416;19.402;2023-02-12T07:05:18;21.27;;;10.35;;
63050;SDS011;49136;47.416;19.402;2023-02-12T07:07:44;25.58;;;11.05;;
63050;SDS011;49136;47.416;19.402;2023-02-12T07:10:09;22.30;;;12.63;;
63050;SDS011;49136;47.416;19.402;2023-02-12T07:12:35;23.83;;;9.10;;
63050;SDS011;49136;47.416;19.402;2023-02-12T07:15:00;38.95;;;14.75;;
63050;SDS011;49136;47.416;19.402;2023-02-12T07:17:27;21.92;;;9.68;;
63050;SDS011;49136;47.416;19.402;2023-02-12T07:19:54;27.48;;;13.30;;
63050;SDS011;49136;47.416;19.402;2023-02-12T07:22:19;29.52;;;13.82;;
63050;SDS011;49136;47.416;19.402;2023-02-12T07:24:46;26.95;;;10.50;;
63050;SDS011;49136;47.416;19.402;2023-02-12T07:27:12;29.75;;;9.68;;
63050;SDS011;49136;47.416;19.402;2023-02-12T07:29:37;31.77;;;12.82;;
63050;SDS011;49136;47.416;19.402;2023-02-12T07:32:03;38.45;;;13.50;;
63050;SDS011;49136;47.416;19.402;2023-02-12T07:34:28;27.42;;;12.50;;
63050;SDS011;49136;47.416;19.402;2023-02-12T07:36:54;60.17;;;15.45;;
63050;SDS011;49136;47.416;19.402;2023-02-12T07:39:19;30.85;;;11.02;;
63050;SDS011;49136;47.416;19.402;2023-02-12T07:41:45;26.83;;;11.55;;
63050;SDS011;49136;47.416;19.402;2023-02-12T07:44:11;31.92;;;13.15;;
63050;SDS011;49136;47.416;19.402;2023-02-12T07:46:38;29.02;;;13.00;;
63050;SDS011;49136;47.416;19.402;2023-02-12T07:49:06;25.90;;;12.07;;
63050;SDS011;49136;47.416;19.402;2023-02-12T07:51:35;39.08;;;15.93;;
63050;SDS011;49136;47.416;19.402;2023-02-12T07:54:01;36.72;;;15.07;;
63050;SDS011;49136;47.416;19.402;2023-02-12T07:56:27;36.35;;;15.75;;
63050;SDS011;49136;47.416;19.402;2023-02-12T07:58:57;44.75;;;18.33;;
63050;SDS011;49136;47.416;19.402;2023-02-12T08:01:27;33.25;;;14.68;;
63050;SDS011;49136;47.416;19.402;2023-02-12T08:03:56;49.67;;;15.48;;
63050;SDS011;49136;47.416;19.402;2023-02-12T08:06:24;51.22;;;15.00;;
63050;SDS011;49136;47.416;19.402;2023-02-12T08:08:51;45.80;;;17.55;;
63050;SDS011;49136;47.416;19.402;2023-02-12T08:11:18;59.20;;;18.55;;
63050;SDS011;49136;47.416;19.402;2023-02-12T08:13:44;55.45;;;19.08;;
63050;SDS011;49136;47.416;19.402;2023-02-12T08:16:11;48.58;;;18.13;;
63050;SDS011;49136;47.416;19.402;2023-02-12T08:18:38;56.65;;;18.33;;
63050;SDS011;49136;47.416;19.402;2023-02-12T08:21:05;58.17;;;17.77;;
63050;SDS011;49136;47.416;19.402;2023-02-12T08:23:32;46.70;;;17.30;;
63050;SDS011;49136;47.416;19.402;2023-02-12T08:26:18;45.95;;;14.98;;
63050;SDS011;49136;47.416;19.402;2023-02-12T08:31:26;49.22;;;19.98;;
63050;SDS011;49136;47.416;19.402;2023-02-12T08:33:56;49.13;;;17.92;;
63050;SDS011;49136;47.416;19.402;2023-02-12T08:36:24;41.92;;;16.88;;
63050;SDS011;49136;47.416;19.402;2023-02-12T08:38:51;37.42;;;15.00;;
63050;SDS011;49136;47.416;19.402;2023-02-12T08:41:21;41.92;;;14.45;;
63050;SDS011;49136;47.416;19.402;2023-02-12T08:43:48;49.28;;;16.42;;
63050;SDS011;49136;47.416;19.402;2023-02-12T08:46:26;39.22;;;17.38;;
63050;SDS011;49136;47.416;19.402;2023-02-12T08:49:06;50.53;;;16.63;;
63050;SDS011;49136;47.416;19.402;2023-02-12T08:51:35;47.95;;;18.13;;
63050;SDS011;49136;47.416;19.402;2023-02-12T08:54:03;60.50;;;19.90;;
63050;SDS011;49136;47.416;19.402;2023-02-12T08:56:31;69.60;;;19.33;;
63050;SDS011;49136;47.416;19.402;2023-02-12T08:58:57;41.03;;;17.15;;
63050;SDS011;49136;47.416;19.402;2023-02-12T09:01:25;49.13;;;15.70;;
63050;SDS011;49136;47.416;19.402;2023-02-12T09:03:52;39.10;;;13.68;;
63050;SDS011;49136;47.416;19.402;2023-02-12T09:06:21;47.28;;;14.60;;
63050;SDS011;49136;47.416;19.402;2023-02-12T09:08:47;31.00;;;12.27;;
63050;SDS011;49136;47.416;19.402;2023-02-12T09:11:14;49.35;;;15.57;;
63050;SDS011;49136;47.416;19.402;2023-02-12T09:13:42;52.03;;;17.50;;
63050;SDS011;49136;47.416;19.402;2023-02-12T09:16:11;41.65;;;13.85;;
63050;SDS011;49136;47.416;19.402;2023-02-12T09:18:37;52.33;;;16.90;;
63050;SDS011;49136;47.416;19.402;2023-02-12T09:21:07;49.05;;;18.98;;
63050;SDS011;49136;47.416;19.402;2023-02-12T09:23:35;47.88;;;16.65;;
63050;SDS011;49136;47.416;19.402;2023-02-12T09:26:05;41.10;;;16.02;;
63050;SDS011;49136;47.416;19.402;2023-02-12T09:28:32;51.10;;;17.17;;
63050;SDS011;49136;47.416;19.402;2023-02-12T09:31:03;46.50;;;15.60;;
63050;SDS011;49136;47.416;19.402;2023-02-12T09:33:32;47.63;;;16.07;;
63050;SDS011;49136;47.416;19.402;2023-02-12T09:36:02;43.95;;;15.82;;
63050;SDS011;49136;47.416;19.402;2023-02-12T09:38:30;52.67;;;17.85;;
63050;SDS011;49136;47.416;19.402;2023-02-12T09:51:49;37.47;;;14.48;;
63050;SDS011;49136;47.416;19.402;2023-02-12T09:54:18;45.95;;;16.40;;
63050;SDS011;49136;47.416;19.402;2023-02-12T09:56:53;48.65;;;18.30;;
63050;SDS011;49136;47.416;19.402;2023-02-12T09:59:25;46.90;;;15.30;;
63050;SDS011;49136;47.416;19.402;2023-02-12T10:01:56;47.33;;;18.45;;
63050;SDS011;49136;47.416;19.402;2023-02-12T10:04:22;49.47;;;14.93;;
63050;SDS011;49136;47.416;19.402;2023-02-12T10:12:33;54.35;;;18.25;;
63050;SDS011;49136;47.416;19.402;2023-02-12T10:14:57;62.63;;;19.27;;
63050;SDS011;49136;47.416;19.402;2023-02-12T10:26:12;40.28;;;14.38;;
63050;SDS011;49136;47.416;19.402;2023-02-12T10:28:43;39.53;;;14.70;;
63050;SDS011;49136;47.416;19.402;2023-02-12T10:31:31;39.92;;;15.43;;
63050;SDS011;49136;47.416;19.402;2023-02-12T10:34:03;36.08;;;13.38;;
63050;SDS011;49136;47.416;19.402;2023-02-12T10:36:42;41.35;;;16.77;;
63050;SDS011;49136;47.416;19.402;2023-02-12T10:39:23;57.67;;;20.65;;
63050;SDS011;49136;47.416;19.402;2023-02-12T10:41:57;44.60;;;15.35;;
63050;SDS011;49136;47.416;19.402;2023-02-12T10:44:46;51.85;;;20.02;;
63050;SDS011;49136;47.416;19.402;2023-02-12T10:47:14;53.60;;;18.15;;
63050;SDS011;49136;47.416;19.402;2023-02-12T10:49:44;37.72;;;14.55;;
63050;SDS011;49136;47.416;19.402;2023-02-12T10:55:23;59.40;;;19.95;;
63050;SDS011;49136;47.416;19.402;2023-02-12T10:57:56;59.72;;;21.50;;
63050;SDS011;49136;47.416;19.402;2023-02-12T11:00:25;72.07;;;18.00;;
63050;SDS011;49136;47.416;19.402;2023-02-12T11:03:02;66.93;;;23.17;;
63050;SDS011;49136;47.416;19.402;2023-02-12T11:05:29;57.33;;;22.98;;
63050;SDS011;49136;47.416;19.402;2023-02-12T11:07:58;56.78;;;20.48;;
63050;SDS011;49136;47.416;19.402;2023-02-12T11:10:28;80.15;;;25.45;;
63050;SDS011;49136;47.416;19.402;2023-02-12T11:12:56;63.83;;;20.25;;
63050;SDS011;49136;47.416;19.402;2023-02-12T11:15:24;68.25;;;22.35;;
63050;SDS011;49136;47.416;19.402;2023-02-12T11:18:02;56.88;;;20.08;;
63050;SDS011;49136;47.416;19.402;2023-02-12T11:20:33;77.68;;;21.08;;
63050;SDS011;49136;47.416;19.402;2023-02-12T11:23:04;66.00;;;22.30;;
63050;SDS011;49136;47.416;19.402;2023-02-12T11:25:53;63.33;;;21.27;;
63050;SDS011;49136;47.416;19.402;2023-02-12T11:28:21;57.55;;;21.67;;
63050;SDS011;49136;47.416;19.402;2023-02-12T11:30:55;65.97;;;22.80;;
63050;SDS011;49136;47.416;19.402;2023-02-12T11:33:23;74.93;;;24.98;;
63050;SDS011;49136;47.416;19.402;2023-02-12T11:35:51;54.03;;;18.80;;
63050;SDS011;49136;47.416;19.402;2023-02-12T11:38:30;69.70;;;22.90;;
63050;SDS011;49136;47.416;19.402;2023-02-12T11:40:59;63.85;;;22.15;;
63050;SDS011;49136;47.416;19.402;2023-02-12T11:43:52;54.25;;;19.85;;
63050;SDS011;49136;47.416;19.402;2023-02-12T11:46:22;89.10;;;22.52;;
63050;SDS011;49136;47.416;19.402;2023-02-12T11:51:18;51.38;;;19.02;;
63050;SDS011;49136;47.416;19.402;2023-02-12T11:53:53;67.03;;;22.85;;
63050;SDS011;49136;47.416;19.402;2023-02-12T11:56:21;81.57;;;25.08;;
63050;SDS011;49136;47.416;19.402;2023-02-12T11:58:48;76.53;;;25.15;;
63050;SDS011;49136;47.416;19.402;2023-02-12T12:01:19;64.20;;;22.15;;
63050;SDS011;49136;47.416;19.402;2023-02-12T12:03:56;83.63;;;26.00;;
63050;SDS011;49136;47.416;19.402;2023-02-12T12:09:24;62.60;;;21.10;;
63050;SDS011;49136;47.416;19.402;2023-02-12T12:14:49;66.15;;;19.60;;
63050;SDS011;49136;47.416;19.402;2023-02-12T12:17:40;64.15;;;23.17;;
63050;SDS011;49136;47.416;19.402;2023-02-12T12:20:37;70.20;;;25.03;;
63050;SDS011;49136;47.416;19.402;2023-02-12T12:26:03;104.88;;;29.45;;
63050;SDS011;49136;47.416;19.402;2023-02-12T12:28:44;122.32;;;31.23;;
63050;SDS011;49136;47.416;19.402;2023-02-12T12:31:19;45.35;;;15.27;;
63050;SDS011;49136;47.416;19.402;2023-02-12T12:33:50;43.65;;;15.98;;
63050;SDS011;49136;47.416;19.402;2023-02-12T12:36:44;40.70;;;14.48;;
63050;SDS011;49136;47.416;19.402;2023-02-12T12:39:36;37.50;;;12.52;;
63050;SDS011;49136;47.416;19.402;2023-02-12T12:45:16;28.95;;;10.88;;
63050;SDS011;49136;47.416;19.402;2023-02-12T13:08:38;31.50;;;10.60;;
63050;SDS011;49136;47.416;19.402;2023-02-12T13:11:30;37.97;;;10.60;;
63050;SDS011;49136;47.416;19.402;2023-02-12T13:16:55;39.10;;;12.32;;
63050;SDS011;49136;47.416;19.402;2023-02-12T13:22:15;58.38;;;13.75;;
63050;SDS011;49136;47.416;19.402;2023-02-12T13:24:44;37.80;;;11.48;;
63050;SDS011;49136;47.416;19.402;2023-02-12T13:27:35;38.38;;;8.23;;
63050;SDS011;49136;47.416;19.402;2023-02-12T13:32:58;23.67;;;9.02;;
63050;SDS011;49136;47.416;19.402;2023-02-12T13:35:31;28.45;;;9.55;;
63050;SDS011;49136;47.416;19.402;2023-02-12T13:38:01;39.78;;;11.90;;
63050;SDS011;49136;47.416;19.402;2023-02-12T13:40:29;27.45;;;10.13;;
63050;SDS011;49136;47.416;19.402;2023-02-12T13:51:06;26.20;;;9.30;;
63050;SDS011;49136;47.416;19.402;2023-02-12T13:53:53;26.35;;;9.70;;
63050;SDS011;49136;47.416;19.402;2023-02-12T13:56:56;31.63;;;10.50;;
63050;SDS011;49136;47.416;19.402;2023-02-12T14:04:25;26.25;;;9.23;;
63050;SDS011;49136;47.416;19.402;2023-02-12T14:09:35;26.40;;;9.82;;
63050;SDS011;49136;47.416;19.402;2023-02-12T14:12:06;29.10;;;10.27;;
63050;SDS011;49136;47.416;19.402;2023-02-12T14:14:40;30.90;;;9.68;;
63050;SDS011;49136;47.416;19.402;2023-02-12T14:24:55;30.38;;;10.00;;
63050;SDS011;49136;47.416;19.402;2023-02-12T14:27:48;30.67;;;11.13;;
63050;SDS011;49136;47.416;19.402;2023-02-12T14:30:35;32.55;;;9.60;;
63050;SDS011;49136;47.416;19.402;2023-02-12T14:33:17;39.78;;;9.63;;
63050;SDS011;49136;47.416;19.402;2023-02-12T14:35:46;23.70;;;8.93;;
63050;SDS011;49136;47.416;19.402;2023-02-12T14:40:42;21.95;;;9.35;;
63050;SDS011;49136;47.416;19.402;2023-02-12T14:45:56;34.40;;;12.50;;
63050;SDS011;49136;47.416;19.402;2023-02-12T14:48:56;45.50;;;13.18;;
63050;SDS011;49136;47.416;19.402;2023-02-12T14:57:35;58.65;;;14.02;;
63050;SDS011;49136;47.416;19.402;2023-02-12T15:02:50;36.38;;;11.13;;
63050;SDS011;49136;47.416;19.402;2023-02-12T15:05:25;42.72;;;12.13;;
63050;SDS011;49136;47.416;19.402;2023-02-12T15:07:57;39.85;;;12.48;;
63050;SDS011;49136;47.416;19.402;2023-02-12T15:10:31;40.13;;;14.30;;
63050;SDS011;49136;47.416;19.402;2023-02-12T15:13:07;40.60;;;13.13;;
63050;SDS011;49136;47.416;19.402;2023-02-12T15:15:39;39.50;;;13.02;;
63050;SDS011;49136;47.416;19.402;2023-02-12T15:18:13;42.10;;;12.02;;
63050;SDS011;49136;47.416;19.402;2023-02-12T15:21:13;39.45;;;12.23;;
63050;SDS011;49136;47.416;19.402;2023-02-12T15:23:55;41.00;;;13.93;;
63050;SDS011;49136;47.416;19.402;2023-02-12T15:26:30;48.58;;;15.90;;
63050;SDS011;49136;47.416;19.402;2023-02-12T15:28:59;61.75;;;18.05;;
63050;SDS011;49136;47.416;19.402;2023-02-12T15:31:27;47.60;;;16.52;;
63050;SDS011;49136;47.416;19.402;2023-02-12T15:33:55;44.55;;;13.10;;
63050;SDS011;49136;47.416;19.402;2023-02-12T15:36:23;41.63;;;12.15;;
63050;SDS011;49136;47.416;19.402;2023-02-12T15:38:55;38.17;;;13.50;;
63050;SDS011;49136;47.416;19.402;2023-02-12T15:41:41;51.58;;;14.10;;
63050;SDS011;49136;47.416;19.402;2023-02-12T15:44:20;36.40;;;13.30;;
63050;SDS011;49136;47.416;19.402;2023-02-12T15:46:56;34.85;;;14.35;;
63050;SDS011;49136;47.416;19.402;2023-02-12T15:49:29;35.25;;;12.93;;
63050;SDS011;49136;47.416;19.402;2023-02-12T15:51:57;48.50;;;13.43;;
63050;SDS011;49136;47.416;19.402;2023-02-12T15:54:24;37.78;;;13.20;;
63050;SDS011;49136;47.416;19.402;2023-02-12T15:56:53;38.83;;;12.73;;
63050;SDS011;49136;47.416;19.402;2023-02-12T15:59:24;31.52;;;13.10;;
63050;SDS011;49136;47.416;19.402;2023-02-12T16:01:57;66.68;;;16.65;;
63050;SDS011;49136;47.416;19.402;2023-02-12T16:04:28;37.13;;;14.90;;
63050;SDS011;49136;47.416;19.402;2023-02-12T16:06:56;30.25;;;12.65;;
63050;SDS011;49136;47.416;19.402;2023-02-12T16:09:33;30.35;;;11.85;;
63050;SDS011;49136;47.416;19.402;2023-02-12T16:12:04;27.05;;;10.70;;
63050;SDS011;49136;47.416;19.402;2023-02-12T16:14:47;28.85;;;9.50;;
63050;SDS011;49136;47.416;19.402;2023-02-12T16:17:25;74.38;;;24.50;;
63050;SDS011;49136;47.416;19.402;2023-02-12T16:19:57;103.78;;;31.85;;
63050;SDS011;49136;47.416;19.402;2023-02-12T16:22:37;50.83;;;19.50;;
63050;SDS011;49136;47.416;19.402;2023-02-12T16:27:39;26.67;;;10.55;;
63050;SDS011;49136;47.416;19.402;2023-02-12T16:30:20;35.67;;;12.70;;
63050;SDS011;49136;47.416;19.402;2023-02-12T16:35:32;27.48;;;14.35;;
63050;SDS011;49136;47.416;19.402;2023-02-12T16:38:01;19.27;;;9.30;;
63050;SDS011;49136;47.416;19.402;2023-02-12T16:41:01;24.75;;;10.60;;
63050;SDS011;49136;47.416;19.402;2023-02-12T16:46:30;22.25;;;9.98;;
63050;SDS011;49136;47.416;19.402;2023-02-12T16:48:58;33.20;;;12.57;;
63050;SDS011;49136;47.416;19.402;2023-02-12T16:54:01;32.05;;;12.48;;
63050;SDS011;49136;47.416;19.402;2023-02-12T16:56:32;34.28;;;12.10;;
63050;SDS011;49136;47.416;19.402;2023-02-12T16:59:02;34.08;;;11.32;;
63050;SDS011;49136;47.416;19.402;2023-02-12T17:01:30;23.17;;;9.35;;
63050;SDS011;49136;47.416;19.402;2023-02-12T17:04:00;17.15;;;7.55;;
63050;SDS011;49136;47.416;19.402;2023-02-12T17:06:31;41.22;;;9.98;;
63050;SDS011;49136;47.416;19.402;2023-02-12T17:08:57;25.70;;;8.52;;
63050;SDS011;49136;47.416;19.402;2023-02-12T17:11:25;29.08;;;10.43;;
63050;SDS011;49136;47.416;19.402;2023-02-12T17:13:53;16.02;;;8.23;;
63050;SDS011;49136;47.416;19.402;2023-02-12T17:16:20;27.52;;;10.63;;
63050;SDS011;49136;47.416;19.402;2023-02-12T17:18:46;26.33;;;10.57;;
63050;SDS011;49136;47.416;19.402;2023-02-12T17:21:26;28.73;;;9.25;;
63050;SDS011;49136;47.416;19.402;2023-02-12T17:23:54;21.00;;;10.20;;
63050;SDS011;49136;47.416;19.402;2023-02-12T17:26:24;28.60;;;10.93;;
63050;SDS011;49136;47.416;19.402;2023-02-12T17:28:50;25.95;;;11.75;;
63050;SDS011;49136;47.416;19.402;2023-02-12T17:31:16;27.95;;;10.38;;
63050;SDS011;49136;47.416;19.402;2023-02-12T17:33:44;25.02;;;12.52;;